Time;durP1;ratioP1;P1;durP2;ratioP2;P2;SDS_P1;SDS_P2;PMS_P1;PMS_P2;Temp;Humidity;BMP_temperature;BMP_pressure;BME280_temperature;BME280_humidity;BME280_pressure;Samples;Min_cycle;Max_cycle;Signal;HPM_P1;HPM_P2
2023/07/11 00:00:23;;;;;;;10.93;10.63;;;21.60;99.90;;;;;;4985361;28;20244;-80
2023/07/11 00:02:53;;;;;;;10.90;10.60;;;21.50;99.90;;;;;;4984813;28;20237;-81
2023/07/11 00:05:22;;;;;;;10.90;10.60;;;21.40;99.90;;;;;;5003723;28;20228;-81
2023/07/11 00:07:51;;;;;;;10.98;10.68;;;21.40;99.90;;;;;;5003532;28;20237;-80
2023/07/11 00:10:20;;;;;;;11.10;10.80;;;21.40;99.90;;;;;;5003358;28;20237;-81
2023/07/11 00:13:01;;;;;;;11.15;10.85;;;21.40;99.90;;;;;;5005220;28;20256;-81
2023/07/11 00:15:29;;;;;;;11.10;10.80;;;21.40;99.90;;;;;;5004845;28;20241;-81
2023/07/11 00:17:58;;;;;;;10.88;10.57;;;21.40;99.90;;;;;;5002812;28;20279;-81
2023/07/11 00:20:27;;;;;;;11.10;10.80;;;21.30;99.90;;;;;;5003606;28;20225;-81
2023/07/11 00:22:59;;;;;;;10.95;10.65;;;21.30;99.90;;;;;;5003818;28;20245;-81
2023/07/11 00:25:28;;;;;;;10.85;10.55;;;21.30;99.90;;;;;;5004755;28;20266;-81
2023/07/11 00:28:06;;;;;;;11.18;10.88;;;21.30;99.90;;;;;;5004304;28;20252;-81
2023/07/11 00:30:35;;;;;;;10.70;10.40;;;21.20;99.90;;;;;;5004523;28;20272;-80
2023/07/11 00:33:04;;;;;;;10.70;10.40;;;21.20;99.90;;;;;;5004480;28;20245;-81
2023/07/11 00:35:34;;;;;;;11.15;10.85;;;21.20;99.90;;;;;;5004047;28;20233;-82
2023/07/11 00:38:04;;;;;;;10.80;10.50;;;21.20;99.90;;;;;;5004364;28;20221;-81
2023/07/11 00:40:42;;;;;;;10.70;10.40;;;21.20;99.90;;;;;;5008183;28;20272;-81
2023/07/11 00:43:20;;;;;;;10.65;10.35;;;21.10;99.90;;;;;;5006584;28;20258;-81
2023/07/11 00:46:16;;;;;;;10.75;10.45;;;21.10;99.90;;;;;;5005818;28;20248;-81
2023/07/11 00:48:48;;;;;;;10.65;10.35;;;21.10;99.90;;;;;;5004514;28;20233;-81
2023/07/11 00:51:23;;;;;;;10.88;10.57;;;21.00;99.90;;;;;;5005973;28;20224;-81
2023/07/11 00:53:53;;;;;;;10.68;10.38;;;21.00;99.90;;;;;;5003838;28;20252;-81
2023/07/11 00:56:31;;;;;;;10.85;10.55;;;20.90;99.90;;;;;;5003194;28;20247;-81
2023/07/11 01:04:35;;;;;;;10.40;10.10;;;20.80;99.90;;;;;;5002342;28;20220;-80
2023/07/11 01:07:04;;;;;;;10.43;10.13;;;20.70;99.90;;;;;;5002090;28;20260;-81
2023/07/11 01:09:33;;;;;;;10.80;10.50;;;20.70;99.90;;;;;;5003305;28;20240;-81
2023/07/11 01:12:05;;;;;;;11.02;10.73;;;20.60;99.90;;;;;;4992862;28;20217;-80
2023/07/11 01:14:41;;;;;;;10.88;10.57;;;20.50;99.90;;;;;;5006936;28;20255;-80
2023/07/11 01:17:29;;;;;;;10.88;10.57;;;20.40;99.90;;;;;;4998940;28;20271;-82
2023/07/11 01:19:58;;;;;;;11.10;10.80;;;20.30;99.90;;;;;;4991932;28;20257;-81
2023/07/11 01:22:36;;;;;;;10.48;10.18;;;20.20;99.90;;;;;;4994719;28;20260;-81
2023/07/11 01:27:52;;;;;;;10.88;10.57;;;20.10;99.90;;;;;;5001123;28;20300;-82
2023/07/11 01:30:24;;;;;;;11.00;10.70;;;20.00;99.90;;;;;;5001577;28;20236;-81
2023/07/11 01:32:52;;;;;;;10.90;10.60;;;20.00;99.90;;;;;;5010344;28;20231;-81
2023/07/11 01:35:21;;;;;;;10.80;10.50;;;20.00;99.90;;;;;;5008047;28;20291;-79
2023/07/11 01:37:53;;;;;;;10.90;10.60;;;20.00;99.90;;;;;;5007320;28;20316;-78
2023/07/11 01:40:21;;;;;;;10.70;10.40;;;19.90;99.90;;;;;;5007047;28;20255;-79
2023/07/11 01:42:49;;;;;;;10.60;10.30;;;19.90;99.90;;;;;;5003820;28;20232;-79
2023/07/11 01:45:19;;;;;;;10.60;10.30;;;19.90;99.90;;;;;;5004795;28;20237;-79
2023/07/11 01:47:48;;;;;;;10.90;10.60;;;19.90;99.90;;;;;;5003865;28;20241;-80
2023/07/11 01:50:18;;;;;;;10.57;10.27;;;19.80;99.90;;;;;;5003370;28;20326;-80
2023/07/11 01:52:47;;;;;;;10.60;10.30;;;19.80;99.90;;;;;;5004172;28;20320;-81
2023/07/11 01:55:27;;;;;;;10.60;10.30;;;19.80;99.90;;;;;;5008852;28;20267;-79
2023/07/11 01:57:55;;;;;;;10.57;10.27;;;19.70;99.90;;;;;;5009864;28;20240;-79
2023/07/11 02:00:24;;;;;;;10.40;10.10;;;19.70;99.90;;;;;;5001738;28;20273;-79
2023/07/11 02:02:54;;;;;;;10.50;10.20;;;19.60;99.90;;;;;;4990772;28;20217;-80
2023/07/11 02:05:23;;;;;;;10.30;10.00;;;19.60;99.90;;;;;;5002847;28;20252;-80
2023/07/11 02:07:54;;;;;;;10.30;10.00;;;19.60;99.90;;;;;;5003092;28;20264;-80
2023/07/11 02:10:29;;;;;;;10.25;9.95;;;19.50;99.90;;;;;;5003320;28;20327;-81
2023/07/11 02:13:02;;;;;;;10.30;10.00;;;19.50;99.90;;;;;;5003597;28;20312;-81
2023/07/11 02:15:29;;;;;;;10.15;9.85;;;19.50;99.90;;;;;;5001311;28;20300;-80
2023/07/11 02:17:59;;;;;;;10.50;10.20;;;19.50;99.90;;;;;;5000615;28;20232;-81
2023/07/11 02:20:28;;;;;;;10.05;9.75;;;19.50;99.90;;;;;;5001566;28;20264;-79
2023/07/11 02:23:02;;;;;;;10.30;10.00;;;19.50;99.90;;;;;;4995607;28;20318;-80
2023/07/11 02:25:32;;;;;;;10.30;10.00;;;19.50;99.90;;;;;;4971089;28;20229;-81
2023/07/11 02:28:00;;;;;;;10.20;9.90;;;19.50;99.90;;;;;;4985281;28;20241;-80
2023/07/11 02:30:28;;;;;;;10.32;10.02;;;19.50;99.90;;;;;;4982728;28;20237;-81
2023/07/11 02:32:58;;;;;;;10.48;10.18;;;19.50;99.90;;;;;;4985146;28;20229;-80
2023/07/11 02:35:27;;;;;;;10.27;9.98;;;19.50;99.90;;;;;;4981580;28;20324;-80
2023/07/11 02:37:56;;;;;;;10.07;9.77;;;19.50;99.90;;;;;;4982197;28;20236;-81
2023/07/11 02:40:26;;;;;;;9.95;9.65;;;19.40;99.90;;;;;;4982324;28;20285;-81
2023/07/11 02:45:42;;;;;;;9.50;9.20;;;19.40;99.90;;;;;;4981905;28;20229;-80
2023/07/11 02:48:11;;;;;;;9.50;9.20;;;19.30;99.90;;;;;;4991298;28;20324;-80
2023/07/11 02:50:41;;;;;;;9.90;9.60;;;19.30;99.90;;;;;;4988517;28;20236;-79
2023/07/11 02:53:10;;;;;;;9.48;9.18;;;19.30;99.90;;;;;;4982031;28;20264;-80
2023/07/11 02:55:40;;;;;;;9.70;9.40;;;19.30;99.90;;;;;;4982534;28;20244;-80
2023/07/11 02:58:12;;;;;;;10.90;10.60;;;19.30;99.90;;;;;;4982298;28;20264;-81
2023/07/11 03:00:40;;;;;;;10.70;10.40;;;19.20;99.90;;;;;;4982276;28;20241;-80
2023/07/11 03:03:09;;;;;;;10.60;10.30;;;19.20;99.90;;;;;;4982108;28;20320;-80
2023/07/11 03:05:47;;;;;;;10.75;10.45;;;19.10;99.90;;;;;;4982303;28;20249;-80
2023/07/11 03:08:16;;;;;;;10.88;10.57;;;19.00;99.90;;;;;;4981371;28;21062;-81
2023/07/11 03:10:46;;;;;;;10.77;10.48;;;19.00;99.90;;;;;;4983855;28;20285;-81
2023/07/11 03:13:23;;;;;;;10.68;10.38;;;19.00;99.90;;;;;;4982160;28;20225;-81
2023/07/11 03:15:53;;;;;;;10.95;10.65;;;19.00;99.90;;;;;;4981385;28;20239;-80
2023/07/11 03:18:22;;;;;;;11.05;10.75;;;18.90;99.90;;;;;;4972669;28;20236;-82
2023/07/11 03:20:53;;;;;;;11.13;10.82;;;18.90;99.90;;;;;;4984999;28;20244;-81
2023/07/11 03:23:21;;;;;;;11.13;10.82;;;18.80;99.90;;;;;;4981633;28;20236;-81
2023/07/11 03:25:51;;;;;;;11.02;10.73;;;18.80;99.90;;;;;;4982105;28;20233;-81
2023/07/11 03:28:23;;;;;;;10.80;10.50;;;18.80;99.90;;;;;;4992632;28;20305;-81
2023/07/11 03:30:51;;;;;;;10.95;10.65;;;18.60;99.90;;;;;;5006275;28;20313;-81
2023/07/11 03:33:19;;;;;;;10.50;10.20;;;18.60;99.90;;;;;;5006393;28;20244;-81
2023/07/11 03:35:50;;;;;;;10.35;10.05;;;18.60;99.90;;;;;;5006549;28;20243;-81
2023/07/11 03:38:18;;;;;;;10.60;10.30;;;18.50;99.90;;;;;;5005863;28;20241;-81
2023/07/11 03:40:47;;;;;;;10.25;9.95;;;18.40;99.90;;;;;;5004985;28;20229;-81
2023/07/11 03:43:17;;;;;;;9.90;9.60;;;18.40;99.90;;;;;;5005034;28;20256;-81
2023/07/11 03:45:49;;;;;;;9.90;9.60;;;18.40;99.90;;;;;;5006686;28;20233;-81
2023/07/11 03:48:18;;;;;;;10.20;9.90;;;18.50;99.90;;;;;;4988706;28;20241;-81
2023/07/11 03:50:45;;;;;;;10.25;9.95;;;18.50;99.90;;;;;;5005369;28;20237;-81
2023/07/11 03:53:14;;;;;;;10.23;9.93;;;18.60;99.90;;;;;;5004170;28;20233;-82
2023/07/11 03:55:44;;;;;;;10.27;9.98;;;18.60;99.90;;;;;;5003200;28;20268;-79
2023/07/11 03:58:13;;;;;;;10.10;9.80;;;18.60;99.90;;;;;;5002186;28;20237;-79
2023/07/11 04:00:43;;;;;;;10.27;9.98;;;18.70;99.90;;;;;;5004739;28;20239;-80
2023/07/11 04:03:21;;;;;;;10.18;9.88;;;18.70;99.90;;;;;;5003811;28;20227;-81
2023/07/11 04:05:51;;;;;;;10.20;9.90;;;18.70;99.90;;;;;;5004468;28;20236;-81
2023/07/11 04:08:20;;;;;;;10.40;10.10;;;18.80;99.90;;;;;;5005131;28;20248;-81
2023/07/11 04:10:49;;;;;;;10.48;10.18;;;18.80;99.90;;;;;;5007217;28;20323;-81
2023/07/11 04:13:19;;;;;;;10.50;10.20;;;18.90;99.90;;;;;;5007172;28;20280;-80
2023/07/11 04:15:49;;;;;;;10.35;10.05;;;18.90;99.90;;;;;;5009152;28;20236;-81
2023/07/11 04:18:20;;;;;;;10.63;10.32;;;18.90;99.90;;;;;;5008114;28;20221;-81
2023/07/11 04:20:48;;;;;;;10.57;10.27;;;19.00;99.90;;;;;;5015365;28;20229;-81
2023/07/11 04:23:18;;;;;;;10.55;10.25;;;19.00;99.90;;;;;;5007517;28;20249;-80
2023/07/11 04:25:48;;;;;;;10.68;10.38;;;19.00;99.90;;;;;;4999948;28;20237;-80
2023/07/11 04:28:17;;;;;;;10.50;10.20;;;19.00;99.90;;;;;;4995054;28;20287;-81
2023/07/11 04:30:47;;;;;;;10.70;10.40;;;18.90;99.90;;;;;;4987538;28;20265;-82
2023/07/11 04:33:16;;;;;;;10.57;10.27;;;18.90;99.90;;;;;;4986537;28;20249;-81
2023/07/11 04:35:59;;;;;;;10.20;9.90;;;18.90;99.90;;;;;;4985345;28;20276;-82
2023/07/11 04:38:26;;;;;;;10.40;10.10;;;18.90;99.90;;;;;;4985197;28;20240;-81
2023/07/11 04:40:54;;;;;;;10.50;10.20;;;19.00;99.90;;;;;;4984757;28;20218;-84
2023/07/11 04:43:23;;;;;;;10.50;10.20;;;19.00;99.90;;;;;;4984902;28;20285;-81
2023/07/11 04:45:53;;;;;;;10.40;10.10;;;19.10;99.90;;;;;;4984682;28;20285;-81
2023/07/11 04:48:22;;;;;;;10.65;10.35;;;19.20;99.90;;;;;;4984599;28;20276;-82
2023/07/11 04:51:00;;;;;;;10.68;10.38;;;19.30;99.90;;;;;;4984730;28;20320;-81
2023/07/11 04:53:29;;;;;;;10.70;10.40;;;19.40;99.90;;;;;;4984386;28;20264;-80
2023/07/11 04:55:59;;;;;;;10.50;10.20;;;19.50;99.90;;;;;;4986454;28;20239;-82
2023/07/11 04:58:31;;;;;;;10.50;10.20;;;19.50;99.90;;;;;;4987961;28;20337;-82
2023/07/11 05:01:09;;;;;;;10.50;10.20;;;19.50;99.90;;;;;;4986262;28;20225;-81
2023/07/11 05:03:38;;;;;;;10.60;10.30;;;19.60;99.90;;;;;;4985171;28;20225;-81
2023/07/11 05:06:14;;;;;;;10.35;10.05;;;19.70;99.90;;;;;;4993957;28;20305;-81
2023/07/11 05:08:44;;;;;;;10.60;10.30;;;19.80;99.90;;;;;;5002904;28;20275;-81
2023/07/11 05:11:14;;;;;;;10.65;10.35;;;19.80;99.90;;;;;;5002530;28;20224;-81
2023/07/11 05:13:43;;;;;;;10.73;10.43;;;19.90;99.90;;;;;;4997435;28;20225;-81
2023/07/11 05:16:14;;;;;;;10.60;10.30;;;19.90;99.90;;;;;;4997330;28;20243;-82
2023/07/11 05:18:42;;;;;;;10.90;10.60;;;20.00;99.90;;;;;;4984079;28;20257;-81
2023/07/11 05:21:19;;;;;;;10.80;10.50;;;20.10;99.90;;;;;;4983664;28;20289;-80
2023/07/11 05:23:49;;;;;;;10.65;10.35;;;20.20;99.90;;;;;;4983429;28;20235;-79
2023/07/11 05:26:18;;;;;;;10.80;10.50;;;20.30;99.90;;;;;;4981942;28;20241;-80
2023/07/11 05:28:49;;;;;;;10.88;10.57;;;20.40;99.90;;;;;;4982986;28;20324;-78
2023/07/11 05:31:18;;;;;;;10.70;10.40;;;20.50;99.90;;;;;;4983891;28;20284;-81
2023/07/11 05:33:47;;;;;;;10.70;10.40;;;20.60;99.90;;;;;;4983730;28;20290;-82
2023/07/11 05:36:42;;;;;;;10.73;10.43;;;20.60;99.90;;;;;;4983729;28;20312;-81
2023/07/11 05:42:00;;;;;;;10.98;10.68;;;20.80;99.90;;;;;;4983277;28;20229;-80
2023/07/11 05:44:29;;;;;;;11.23;10.90;;;20.90;99.90;;;;;;4986602;28;20237;-80
2023/07/11 05:46:58;;;;;;;11.00;10.70;;;21.00;99.90;;;;;;4984499;28;20321;-81
2023/07/11 05:49:27;;;;;;;11.07;10.77;;;21.20;99.90;;;;;;4983060;28;20626;-80
2023/07/11 05:52:05;;;;;;;11.10;10.80;;;21.30;99.90;;;;;;4983898;28;20235;-80
2023/07/11 05:54:35;;;;;;;10.90;10.60;;;21.40;99.90;;;;;;4982217;28;20235;-81
2023/07/11 05:57:04;;;;;;;10.95;10.65;;;21.60;99.90;;;;;;4986406;28;20237;-79
2023/07/11 05:59:34;;;;;;;11.10;10.80;;;21.70;99.90;;;;;;4983727;28;20280;-80
2023/07/11 06:02:03;;;;;;;11.18;10.88;;;21.90;99.90;;;;;;4984794;28;20244;-80
2023/07/11 06:04:33;;;;;;;11.50;11.10;;;22.00;99.90;;;;;;4980954;28;20423;-80
2023/07/11 06:07:05;;;;;;;10.90;10.60;;;22.10;99.90;;;;;;4981595;28;20236;-79
2023/07/11 06:09:33;;;;;;;10.95;10.65;;;22.30;99.90;;;;;;4982722;28;20305;-80
2023/07/11 06:12:02;;;;;;;10.88;10.57;;;22.40;99.90;;;;;;4983622;28;20233;-80
2023/07/11 06:14:30;;;;;;;10.90;10.60;;;22.50;99.90;;;;;;4987231;28;20229;-81
2023/07/11 06:17:00;;;;;;;10.90;10.60;;;22.60;99.90;;;;;;4996582;28;20297;-80
2023/07/11 06:19:29;;;;;;;11.07;10.77;;;22.70;99.90;;;;;;4987025;28;20252;-81
2023/07/11 06:21:59;;;;;;;11.30;10.90;;;22.80;99.90;;;;;;4989334;28;20309;-80
2023/07/11 06:24:30;;;;;;;11.10;10.80;;;23.00;99.90;;;;;;4990431;28;20232;-78
2023/07/11 06:26:59;;;;;;;10.95;10.65;;;23.10;99.90;;;;;;5003462;28;20240;-78
2023/07/11 06:29:30;;;;;;;11.10;10.80;;;23.20;99.90;;;;;;5004536;28;20343;-79
2023/07/11 06:31:58;;;;;;;11.27;10.90;;;23.30;99.90;;;;;;5009756;28;20247;-80
2023/07/11 06:34:27;;;;;;;11.13;10.82;;;23.40;99.90;;;;;;5009385;28;20233;-80
2023/07/11 06:36:57;;;;;;;11.38;10.98;;;23.50;99.90;;;;;;4990859;28;20241;-80
2023/07/11 06:39:25;;;;;;;11.38;10.98;;;23.60;99.90;;;;;;4968521;28;20313;-79
2023/07/11 06:41:56;;;;;;;11.20;10.90;;;23.70;99.90;;;;;;4965960;28;20298;-79
2023/07/11 06:44:25;;;;;;;11.10;10.80;;;23.80;99.90;;;;;;4974596;28;20282;-78
2023/07/11 06:46:55;;;;;;;11.20;10.80;;;23.90;99.90;;;;;;4971614;28;20257;-80
2023/07/11 06:49:24;;;;;;;11.52;11.13;;;24.10;99.90;;;;;;4976122;28;20236;-79
2023/07/11 06:51:54;;;;;;;11.43;11.02;;;24.20;99.90;;;;;;4992767;28;20279;-80
2023/07/11 06:54:23;;;;;;;11.38;10.98;;;24.30;99.90;;;;;;4981281;28;20321;-81
2023/07/11 06:56:54;;;;;;;11.55;11.15;;;24.40;99.90;;;;;;4989269;28;20237;-77
2023/07/11 06:59:25;;;;;;;11.48;11.07;;;24.50;99.90;;;;;;4999290;28;20294;-80
2023/07/11 07:01:52;;;;;;;11.27;10.98;;;24.60;99.90;;;;;;4984330;28;20230;-81
2023/07/11 07:04:21;;;;;;;11.50;11.10;;;24.70;99.90;;;;;;4996766;28;20239;-79
2023/07/11 07:06:50;;;;;;;11.35;11.02;;;24.80;99.90;;;;;;4999922;28;20249;-82
2023/07/11 07:09:20;;;;;;;11.52;11.13;;;24.90;99.90;;;;;;4996022;28;20264;-79
2023/07/11 07:11:49;;;;;;;11.38;11.07;;;25.00;99.90;;;;;;4990129;28;20226;-79
2023/07/11 07:14:19;;;;;;;11.15;10.85;;;25.20;99.90;;;;;;4996021;28;20228;-80
2023/07/11 07:16:51;;;;;;;11.27;10.98;;;25.30;99.90;;;;;;4992343;28;20287;-79
2023/07/11 07:19:19;;;;;;;11.20;10.90;;;25.40;99.90;;;;;;4994231;28;20264;-81
2023/07/11 07:21:47;;;;;;;11.55;11.15;;;25.60;99.90;;;;;;4984804;28;20253;-78
2023/07/11 07:24:16;;;;;;;11.25;10.95;;;25.80;99.90;;;;;;4994512;28;20790;-80
2023/07/11 07:26:46;;;;;;;11.00;10.70;;;25.90;99.90;;;;;;4989588;28;20237;-80
2023/07/11 07:29:14;;;;;;;11.20;10.90;;;26.10;99.90;;;;;;4976642;28;20237;-78
2023/07/11 07:31:47;;;;;;;11.55;11.15;;;26.30;99.90;;;;;;4982106;28;20226;-78
2023/07/11 07:34:16;;;;;;;11.25;10.95;;;26.50;99.90;;;;;;4965811;28;20353;-78
2023/07/11 07:36:44;;;;;;;11.30;11.00;;;26.60;99.90;;;;;;4963006;28;20242;-78
2023/07/11 07:39:11;;;;;;;11.23;10.93;;;26.70;99.90;;;;;;4993361;28;20229;-77
2023/07/11 07:41:41;;;;;;;11.45;11.15;;;26.90;99.90;;;;;;5001406;28;20243;-79
2023/07/11 07:44:08;;;;;;;11.38;11.07;;;26.90;99.90;;;;;;5000942;28;20240;-78
2023/07/11 07:46:36;;;;;;;11.50;11.20;;;27.00;99.90;;;;;;5001084;28;20252;-79
2023/07/11 07:49:03;;;;;;;11.25;10.95;;;27.00;99.90;;;;;;5002322;28;20244;-78
2023/07/11 07:51:33;;;;;;;11.30;11.00;;;27.10;99.90;;;;;;5000503;28;20240;-78
2023/07/11 07:54:01;;;;;;;11.07;10.77;;;27.20;99.90;;;;;;5001628;28;20221;-79
2023/07/11 07:56:30;;;;;;;11.18;10.88;;;27.30;99.90;;;;;;5001605;28;20327;-78
2023/07/11 07:58:58;;;;;;;11.27;10.98;;;27.40;99.90;;;;;;5009349;28;20331;-78
2023/07/11 08:01:28;;;;;;;11.40;11.10;;;27.50;99.90;;;;;;5001253;28;20229;-79
2023/07/11 08:03:56;;;;;;;11.18;10.88;;;27.60;99.90;;;;;;5000966;28;20352;-78
2023/07/11 08:06:24;;;;;;;11.32;11.02;;;27.70;99.90;;;;;;5000911;28;20245;-79
2023/07/11 08:08:54;;;;;;;11.20;10.90;;;27.80;99.90;;;;;;5001889;28;20685;-79
2023/07/11 08:11:23;;;;;;;11.23;10.93;;;27.80;99.90;;;;;;5001897;28;20260;-78
2023/07/11 08:13:54;;;;;;;11.40;11.10;;;27.90;99.90;;;;;;5001603;28;20248;-80
2023/07/11 08:16:22;;;;;;;11.45;11.15;;;28.00;99.90;;;;;;5000273;28;20240;-79
2023/07/11 08:18:49;;;;;;;11.10;10.80;;;28.10;99.90;;;;;;5003525;28;20240;-79
2023/07/11 08:21:17;;;;;;;11.27;10.98;;;28.30;99.90;;;;;;5002864;28;20237;-80
2023/07/11 08:23:47;;;;;;;11.35;11.05;;;28.40;99.90;;;;;;5001997;28;20221;-79
2023/07/11 08:26:17;;;;;;;11.27;10.98;;;28.50;99.90;;;;;;5001566;28;20221;-79
2023/07/11 08:28:47;;;;;;;11.23;10.93;;;28.70;99.90;;;;;;4989970;28;20233;-79
2023/07/11 08:31:16;;;;;;;11.32;11.02;;;28.70;99.90;;;;;;4981566;28;20260;-79
2023/07/11 08:33:44;;;;;;;11.43;11.13;;;28.80;99.90;;;;;;4982006;28;20236;-79
2023/07/11 08:36:12;;;;;;;11.00;10.70;;;28.90;99.90;;;;;;4980586;28;20248;-79
2023/07/11 08:38:39;;;;;;;11.27;10.98;;;29.20;99.90;;;;;;4981236;28;20230;-78
2023/07/11 08:41:23;;;;;;;11.43;11.13;;;29.40;99.90;;;;;;4973870;28;20331;-78
2023/07/11 08:43:52;;;;;;;11.70;11.30;;;29.60;99.90;;;;;;4985164;28;20229;-78
2023/07/11 08:46:21;;;;;;;11.27;10.98;;;29.80;99.90;;;;;;4980131;28;20239;-79
2023/07/11 08:48:53;;;;;;;11.43;11.13;;;29.80;99.90;;;;;;4980873;28;20232;-77
2023/07/11 08:51:26;;;;;;;11.80;11.40;;;29.90;99.90;;;;;;4980885;28;20237;-77
2023/07/11 08:53:59;;;;;;;11.38;11.07;;;30.00;99.90;;;;;;4979757;28;20273;-77
2023/07/11 08:56:36;;;;;;;11.63;11.23;;;30.10;99.90;;;;;;4980006;28;20240;-77
2023/07/11 08:59:08;;;;;;;11.60;11.20;;;30.20;99.90;;;;;;4982608;28;20300;-77
2023/07/11 09:01:44;;;;;;;11.30;11.00;;;30.30;99.90;;;;;;4981641;28;20233;-77
2023/07/11 09:04:16;;;;;;;11.38;11.07;;;30.30;99.90;;;;;;4980301;28;20227;-76
2023/07/11 09:06:55;;;;;;;11.63;11.23;;;30.30;99.90;;;;;;4979583;28;20248;-76
2023/07/11 09:09:23;;;;;;;11.68;11.27;;;30.40;99.90;;;;;;4981004;28;20245;-81
2023/07/11 09:12:08;;;;;;;11.68;11.27;;;30.60;99.90;;;;;;4984187;28;20233;-81
2023/07/11 09:14:50;;;;;;;11.70;11.30;;;30.70;99.90;;;;;;4976157;28;20225;-78
2023/07/11 09:17:29;;;;;;;12.02;11.63;;;30.90;99.90;;;;;;4971990;28;21108;-77
2023/07/11 09:20:20;;;;;;;12.00;11.60;;;31.00;99.90;;;;;;4974014;28;20239;-77
2023/07/11 09:22:56;;;;;;;11.90;11.50;;;31.10;99.90;;;;;;4976090;28;20265;-77
2023/07/11 09:25:30;;;;;;;11.65;11.25;;;31.10;99.90;;;;;;4962079;28;20220;-77
2023/07/11 09:28:06;;;;;;;11.65;11.25;;;31.10;99.90;;;;;;4963172;28;20245;-77
2023/07/11 09:30:41;;;;;;;11.90;11.50;;;31.20;99.90;;;;;;4961341;28;20248;-77
2023/07/11 09:33:17;;;;;;;12.13;11.73;;;31.00;99.90;;;;;;4962049;28;20324;-79
2023/07/11 09:35:46;;;;;;;12.30;11.90;;;31.50;99.90;;;;;;4982664;28;20221;-79
2023/07/11 09:38:20;;;;;;;12.10;11.70;;;31.90;99.90;;;;;;4982491;28;20237;-78
2023/07/11 09:40:54;;;;;;;12.10;11.70;;;32.10;99.90;;;;;;4985719;28;20261;-77
2023/07/11 09:43:23;;;;;;;12.00;11.60;;;32.20;99.90;;;;;;4981265;28;20320;-78
2023/07/11 09:45:51;;;;;;;11.80;11.40;;;32.10;99.90;;;;;;4980413;28;20234;-78
2023/07/11 09:48:27;;;;;;;11.80;11.40;;;32.30;99.90;;;;;;4979715;28;20328;-78
2023/07/11 09:51:06;;;;;;;11.90;11.50;;;32.30;99.90;;;;;;4979082;28;20236;-77
2023/07/11 09:53:34;;;;;;;12.02;11.63;;;32.50;99.90;;;;;;4968673;28;20234;-76
2023/07/11 09:56:04;;;;;;;11.90;11.50;;;32.50;99.90;;;;;;4968646;28;20277;-77
2023/07/11 09:58:35;;;;;;;11.93;11.52;;;32.40;99.90;;;;;;4965739;28;20264;-78
2023/07/11 10:01:04;;;;;;;11.93;11.52;;;32.60;99.90;;;;;;4967172;28;20241;-77
2023/07/11 10:03:35;;;;;;;12.07;11.68;;;32.70;99.90;;;;;;4972988;28;20240;-78
2023/07/11 10:06:05;;;;;;;11.85;11.45;;;32.60;99.90;;;;;;4964349;28;20245;-77
2023/07/11 10:08:37;;;;;;;11.80;11.40;;;32.80;99.90;;;;;;4963149;28;20226;-80
2023/07/11 10:11:07;;;;;;;11.60;11.20;;;32.70;99.90;;;;;;4963241;28;20328;-78
2023/07/11 10:13:36;;;;;;;11.82;11.43;;;32.60;99.90;;;;;;4962194;28;20254;-78
2023/07/11 10:16:06;;;;;;;11.63;11.25;;;32.50;99.90;;;;;;4970782;28;20235;-80
2023/07/11 10:18:36;;;;;;;11.80;11.40;;;32.60;99.90;;;;;;4983570;28;20262;-79
2023/07/11 10:21:14;;;;;;;11.77;11.38;;;33.00;99.90;;;;;;4962626;28;20321;-78
2023/07/11 10:23:44;;;;;;;12.07;11.68;;;33.30;99.90;;;;;;4972067;28;20325;-78
2023/07/11 10:26:21;;;;;;;12.10;11.70;;;33.50;99.90;;;;;;4963862;28;20261;-77
2023/07/11 10:29:00;;;;;;;11.90;11.50;;;33.70;99.90;;;;;;4980913;28;20244;-79
2023/07/11 10:31:33;;;;;;;11.77;11.38;;;33.50;99.90;;;;;;4965559;28;20236;-79
2023/07/11 10:34:13;;;;;;;11.48;11.18;;;33.20;99.90;;;;;;4964637;28;20233;-79
2023/07/11 10:36:47;;;;;;;11.77;11.38;;;33.40;99.90;;;;;;4963204;28;20229;-79
2023/07/11 10:39:20;;;;;;;11.90;11.50;;;33.60;99.90;;;;;;4968838;28;20237;-79
2023/07/11 10:41:56;;;;;;;11.80;11.40;;;33.60;99.90;;;;;;4984154;28;20245;-79
2023/07/11 10:44:34;;;;;;;11.75;11.38;;;33.80;99.90;;;;;;4985483;28;20239;-79
2023/07/11 10:47:04;;;;;;;11.95;11.55;;;34.20;99.90;;;;;;4974206;28;20293;-79
2023/07/11 10:49:44;;;;;;;12.30;11.90;;;34.60;99.90;;;;;;4980951;28;21198;-80
2023/07/11 10:52:21;;;;;;;12.00;11.60;;;34.60;99.90;;;;;;4972342;28;20293;-79
2023/07/11 10:54:54;;;;;;;12.10;11.70;;;34.40;99.90;;;;;;4974347;28;20312;-79
2023/07/11 10:57:35;;;;;;;11.98;11.57;;;34.50;99.90;;;;;;4968654;28;20238;-79
2023/07/11 11:00:08;;;;;;;12.27;11.88;;;34.60;99.90;;;;;;4969018;28;20238;-79
2023/07/11 11:02:49;;;;;;;12.25;11.85;;;34.80;99.90;;;;;;4972697;28;20234;-80
2023/07/11 11:05:27;;;;;;;12.00;11.60;;;35.10;99.90;;;;;;4968845;28;20234;-80
2023/07/11 11:08:01;;;;;;;12.18;11.77;;;34.90;99.90;;;;;;4967635;28;20233;-79
2023/07/11 11:10:41;;;;;;;11.68;11.27;;;34.70;99.90;;;;;;4968525;28;20245;-79
2023/07/11 11:13:26;;;;;;;11.75;11.35;;;34.70;99.90;;;;;;4979245;28;20234;-79
2023/07/11 11:16:07;;;;;;;11.77;11.38;;;34.70;99.90;;;;;;4985155;28;20232;-77
2023/07/11 11:19:09;;;;;;;12.07;11.68;;;34.90;99.90;;;;;;4985361;28;20293;-77
2023/07/11 11:21:47;;;;;;;11.98;11.57;;;35.00;99.90;;;;;;4985913;28;20300;-77
2023/07/11 11:24:45;;;;;;;11.80;11.40;;;35.30;99.90;;;;;;4974164;28;20234;-79
2023/07/11 11:27:28;;;;;;;12.18;11.77;;;35.90;99.90;;;;;;4970907;28;20240;-79
2023/07/11 11:30:05;;;;;;;12.20;11.80;;;36.60;99.90;;;;;;4977466;28;20237;-79
2023/07/11 11:32:47;;;;;;;11.98;11.57;;;36.90;99.90;;;;;;4970184;28;20265;-79
2023/07/11 11:35:29;;;;;;;12.10;11.70;;;36.80;99.90;;;;;;4969118;28;20267;-79
2023/07/11 11:38:18;;;;;;;12.10;11.70;;;36.50;99.90;;;;;;4969607;28;20324;-80
2023/07/11 11:40:51;;;;;;;11.88;11.48;;;36.50;99.90;;;;;;4970226;28;20293;-80
2023/07/11 11:43:21;;;;;;;12.13;11.73;;;36.70;99.90;;;;;;4968129;28;20321;-81
2023/07/11 11:45:50;;;;;;;12.25;11.85;;;36.90;99.90;;;;;;4969049;28;20282;-81
2023/07/11 11:48:25;;;;;;;12.10;11.70;;;37.00;99.90;;;;;;4978309;28;20258;-81
2023/07/11 11:50:54;;;;;;;12.00;11.60;;;37.50;99.90;;;;;;4966672;28;20233;-80
2023/07/11 11:53:25;;;;;;;12.30;11.90;;;37.40;99.90;;;;;;4985154;28;20243;-82
2023/07/11 11:55:57;;;;;;;12.13;11.73;;;36.90;99.90;;;;;;4972607;28;20254;-80
2023/07/11 11:58:28;;;;;;;12.23;11.82;;;36.60;99.90;;;;;;4967972;28;20236;-80
2023/07/11 12:00:58;;;;;;;12.13;11.73;;;36.70;99.90;;;;;;4979236;28;20229;-81
2023/07/11 12:03:43;;;;;;;12.30;11.90;;;36.90;99.90;;;;;;4981864;28;20261;-80
2023/07/11 12:06:29;;;;;;;12.30;11.90;;;37.10;99.90;;;;;;4975373;28;20281;-80
2023/07/11 12:09:25;;;;;;;12.23;11.82;;;36.40;99.90;;;;;;4983332;28;20237;-79
2023/07/11 12:12:09;;;;;;;12.00;11.60;;;36.00;99.90;;;;;;4920250;28;20232;-79
2023/07/11 12:14:39;;;;;;;12.00;11.60;;;36.00;99.90;;;;;;4977129;28;20234;-80
2023/07/11 12:17:44;;;;;;;12.10;11.70;;;35.80;99.90;;;;;;4977656;28;20250;-79
2023/07/11 12:20:20;;;;;;;12.18;11.77;;;36.10;99.90;;;;;;4985186;28;20229;-79
2023/07/11 12:23:17;;;;;;;11.88;11.48;;;36.40;99.90;;;;;;4983252;28;20289;-77
2023/07/11 12:26:11;;;;;;;12.18;11.77;;;36.70;99.90;;;;;;4988156;28;20234;-81
2023/07/11 12:28:41;;;;;;;12.18;11.77;;;37.10;99.90;;;;;;4975550;28;20238;-80
2023/07/11 12:31:22;;;;;;;12.07;11.68;;;37.30;99.90;;;;;;4967881;28;20234;-80
2023/07/11 12:34:02;;;;;;;12.00;11.60;;;37.40;99.90;;;;;;4966242;28;20226;-80
2023/07/11 12:36:50;;;;;;;12.10;11.70;;;37.00;99.90;;;;;;4969180;28;20240;-80
2023/07/11 12:39:47;;;;;;;12.05;11.65;;;36.60;99.90;;;;;;4982912;28;20335;-82
2023/07/11 12:42:35;;;;;;;12.10;11.70;;;36.70;99.90;;;;;;4963962;28;20226;-80
2023/07/11 12:45:02;;;;;;;12.27;11.88;;;37.10;99.90;;;;;;4964163;28;20211;-79
2023/07/11 12:47:31;;;;;;;12.07;11.68;;;37.40;99.90;;;;;;4964118;28;20294;-79
2023/07/11 12:49:59;;;;;;;11.88;11.48;;;37.30;99.90;;;;;;4964954;28;20333;-80
2023/07/11 12:52:29;;;;;;;11.82;11.43;;;37.20;99.90;;;;;;4964975;28;20244;-80
2023/07/11 12:54:58;;;;;;;11.90;11.50;;;37.10;99.90;;;;;;4964773;28;20215;-79
2023/07/11 12:57:27;;;;;;;11.70;11.32;;;37.10;99.90;;;;;;4963982;28;20246;-80
2023/07/11 12:59:55;;;;;;;11.90;11.50;;;36.80;99.90;;;;;;4974321;28;20241;-79
2023/07/11 13:02:28;;;;;;;11.93;11.52;;;36.40;99.90;;;;;;4964760;28;20332;-78
2023/07/11 13:04:59;;;;;;;11.65;11.25;;;36.60;99.90;;;;;;4970837;28;20301;-80
2023/07/11 13:07:32;;;;;;;11.80;11.40;;;36.50;99.90;;;;;;4965565;28;20238;-79